Time;durP1;ratioP1;P1;durP2;ratioP2;P2;SDS_P1;SDS_P2;PMS_P1;PMS_P2;Temp;Humidity;BMP_temperature;BMP_pressure;BME280_temperature;BME280_humidity;BME280_pressure;Samples;Min_cycle;Max_cycle;Signal;HPM_P1;HPM_P2
2021/07/08 00:00:34;;;;;;;2.23;2.00;;;;;;;20.95;87.10;96643.03;5033415;28;20172;-59
2021/07/08 00:03:00;;;;;;;2.20;2.10;;;;;;;21.00;87.42;96637.66;5033216;28;20788;-64
2021/07/08 00:05:26;;;;;;;2.40;2.20;;;;;;;21.01;87.13;96641.94;5033111;28;20473;-59
2021/07/08 00:07:52;;;;;;;3.80;2.60;;;;;;;21.04;87.25;96643.22;5033235;28;20427;-64
2021/07/08 00:10:27;;;;;;;2.63;2.43;;;;;;;21.03;87.38;96642.47;5033137;28;20176;-64
2021/07/08 00:12:53;;;;;;;3.23;2.50;;;;;;;21.04;87.28;96637.88;5016219;28;20518;-64
2021/07/08 00:15:19;;;;;;;3.07;2.87;;;;;;;21.04;87.49;96643.22;5013381;28;20519;-63
2021/07/08 00:17:46;;;;;;;2.70;2.47;;;;;;;21.03;87.53;96642.47;5013324;28;20587;-59
2021/07/08 00:20:15;;;;;;;3.40;2.90;;;;;;;21.05;87.47;96632.25;5013449;28;20404;-58
2021/07/08 00:22:41;;;;;;;2.73;2.50;;;;;;;21.04;87.51;96629.88;5012930;28;20407;-60
2021/07/08 00:25:13;;;;;;;3.43;3.13;;;;;;;21.03;87.43;96623.75;5013338;28;20435;-64
2021/07/08 00:27:39;;;;;;;2.80;2.60;;;;;;;21.06;87.35;96611.69;5028435;28;20674;-59
2021/07/08 00:30:06;;;;;;;3.00;2.80;;;;;;;21.06;87.74;96615.16;5033196;28;20541;-64
2021/07/08 00:32:32;;;;;;;4.50;2.67;;;;;;;21.06;87.82;96611.69;5032608;28;20411;-64
2021/07/08 00:34:58;;;;;;;2.93;2.43;;;;;;;21.05;87.72;96624.22;5033019;28;20442;-64
2021/07/08 00:37:23;;;;;;;2.40;2.20;;;;;;;21.07;87.52;96626.66;5033023;28;20168;-59
2021/07/08 00:39:49;;;;;;;2.63;2.43;;;;;;;21.08;87.46;96631.69;5025649;28;20171;-64
2021/07/08 00:42:14;;;;;;;2.60;2.40;;;;;;;21.10;87.32;96632.22;5026819;28;20188;-59
2021/07/08 00:44:39;;;;;;;2.83;2.27;;;;;;;21.10;87.15;96628.75;5032801;28;20250;-64
2021/07/08 00:47:05;;;;;;;4.73;2.57;;;;;;;21.09;87.19;96633.28;5033079;28;20168;-64
2021/07/08 00:49:31;;;;;;;2.43;2.30;;;;;;;21.09;87.33;96638.63;5031782;28;20631;-59
2021/07/08 00:51:56;;;;;;;3.30;2.10;;;;;;;21.10;87.47;96634.88;5032413;28;20409;-60
2021/07/08 00:54:21;;;;;;;3.43;2.70;;;;;;;21.06;87.73;96638.41;5032867;28;20192;-59
2021/07/08 00:56:47;;;;;;;2.10;1.90;;;;;;;21.08;87.81;96636.25;5020121;28;20188;-64
2021/07/08 00:59:12;;;;;;;2.33;2.17;;;;;;;21.11;87.40;96619.63;5013098;28;20291;-64
2021/07/08 01:01:40;;;;;;;2.23;2.03;;;;;;;21.15;87.51;96600.06;5016317;28;20165;-64
2021/07/08 01:04:05;;;;;;;2.90;2.30;;;;;;;21.16;87.87;96584.84;5016817;28;20191;-59
2021/07/08 01:06:32;;;;;;;3.63;2.87;;;;;;;21.08;88.70;96578.25;5016597;28;20498;-64
2021/07/08 01:08:58;;;;;;;3.60;2.40;;;;;;;21.08;88.78;96569.44;5017139;28;20160;-64
2021/07/08 01:11:24;;;;;;;2.73;2.53;;;;;;;21.11;88.75;96563.50;5027616;28;20430;-62
2021/07/08 01:13:50;;;;;;;2.83;2.60;;;;;;;21.12;88.76;96562.44;5034623;28;20450;-59
2021/07/08 01:16:15;;;;;;;4.27;3.10;;;;;;;21.11;88.98;96564.31;5036389;28;20407;-59
2021/07/08 01:18:41;;;;;;;2.90;2.70;;;;;;;21.08;89.10;96556.06;5036119;28;20450;-58
2021/07/08 01:21:26;;;;;;;6.03;2.90;;;;;;;21.07;89.42;96559.84;5036166;28;20635;-59
2021/07/08 01:23:56;;;;;;;3.10;2.90;;;;;;;21.08;88.68;96548.84;5036044;28;20188;-64
2021/07/08 01:26:22;;;;;;;2.73;2.40;;;;;;;21.11;89.01;96547.47;5032897;28;20489;-58
2021/07/08 01:28:50;;;;;;;3.33;3.00;;;;;;;21.08;89.04;96550.72;5036047;28;20411;-64
2021/07/08 01:31:16;;;;;;;3.90;3.60;;;;;;;21.07;89.33;96549.91;5036338;28;20430;-59
2021/07/08 01:33:41;;;;;;;3.10;2.77;;;;;;;21.04;89.56;96552.38;5035329;28;20781;-64
2021/07/08 01:36:07;;;;;;;3.30;3.10;;;;;;;21.00;89.74;96562.03;5036157;28;20406;-59
2021/07/08 01:38:32;;;;;;;3.43;3.17;;;;;;;21.02;89.65;96568.69;5035792;28;20203;-58
2021/07/08 01:40:59;;;;;;;5.53;2.77;;;;;;;21.01;89.40;96569.78;5026156;28;20176;-64
2021/07/08 01:43:24;;;;;;;3.33;3.13;;;;;;;21.02;89.06;96584.72;5035524;28;20270;-59
2021/07/08 01:46:15;;;;;;;3.60;3.00;;;;;;;20.96;89.27;96595.75;5034435;28;20573;-59
2021/07/08 01:48:54;;;;;;;4.30;3.90;;;;;;;21.00;89.04;96596.78;5033899;28;20180;-59
2021/07/08 01:51:32;;;;;;;5.37;3.30;;;;;;;20.98;89.06;96590.91;5035685;28;20490;-64
2021/07/08 01:53:59;;;;;;;4.10;3.50;;;;;;;20.96;89.09;96585.81;5035432;28;20836;-59
2021/07/08 01:56:26;;;;;;;4.27;3.97;;;;;;;20.91;89.30;96591.25;5033920;28;20463;-64
2021/07/08 01:58:52;;;;;;;4.13;3.20;;;;;;;20.86;89.48;96593.19;5034777;28;20486;-64
2021/07/08 02:01:19;;;;;;;4.37;3.60;;;;;;;20.65;91.13;96583.81;5022952;28;20929;-59
2021/07/08 02:03:45;;;;;;;3.47;3.17;;;;;;;20.57;91.71;96579.06;5015179;28;20494;-64
2021/07/08 02:06:11;;;;;;;3.07;2.87;;;;;;;20.59;91.64;96580.38;5014339;28;20906;-59
2021/07/08 02:08:37;;;;;;;3.13;2.83;;;;;;;20.70;91.34;96567.72;5015523;28;20161;-59
2021/07/08 02:11:06;;;;;;;2.90;2.70;;;;;;;20.67;91.09;96563.75;5015547;28;20415;-64
2021/07/08 02:13:33;;;;;;;2.97;2.70;;;;;;;20.71;90.52;96554.06;5014646;28;20196;-64
2021/07/08 02:16:00;;;;;;;3.33;3.03;;;;;;;20.67;89.77;96554.94;5016562;28;20416;-59
2021/07/08 02:18:25;;;;;;;3.40;2.60;;;;;;;20.61;89.81;96556.88;5015456;28;20872;-59
2021/07/08 02:20:51;;;;;;;2.93;2.27;;;;;;;20.62;89.73;96555.00;5015447;28;20483;-63
2021/07/08 02:23:16;;;;;;;4.20;2.77;;;;;;;20.67;89.45;96552.28;5014839;28;20169;-64
2021/07/08 02:25:42;;;;;;;2.90;2.60;;;;;;;20.65;89.05;96563.25;5015172;28;20173;-65
2021/07/08 02:28:07;;;;;;;3.77;2.47;;;;;;;20.61;88.78;96566.75;5015170;28;20222;-64
2021/07/08 02:30:33;;;;;;;2.80;2.60;;;;;;;20.59;88.63;96560.88;5024771;28;20176;-64
2021/07/08 02:32:58;;;;;;;2.13;1.93;;;;;;;20.57;89.02;96555.03;5034633;28;20164;-59
2021/07/08 02:35:25;;;;;;;2.53;2.33;;;;;;;20.65;88.59;96560.56;5034692;28;20204;-59
2021/07/08 02:37:53;;;;;;;3.20;2.40;;;;;;;20.68;88.53;96561.84;5033637;28;20282;-64
2021/07/08 02:40:22;;;;;;;3.17;2.20;;;;;;;20.68;88.24;96557.31;5023283;28;20420;-59
2021/07/08 02:42:50;;;;;;;2.80;2.60;;;;;;;20.64;87.99;96550.16;5014758;28;20478;-59
2021/07/08 02:45:18;;;;;;;2.90;2.60;;;;;;;20.57;88.68;96539.81;5024146;28;20454;-64
2021/07/08 02:47:43;;;;;;;2.40;2.20;;;;;;;20.59;88.61;96547.53;5034559;28;20419;-59
2021/07/08 02:50:09;;;;;;;4.20;2.63;;;;;;;20.61;88.50;96558.72;5034500;28;20433;-59
2021/07/08 02:52:35;;;;;;;3.57;2.57;;;;;;;20.52;88.82;96571.91;5033498;28;20172;-59
2021/07/08 02:55:00;;;;;;;4.40;2.73;;;;;;;20.48;88.45;96574.38;5031703;28;20450;-64
2021/07/08 02:57:27;;;;;;;2.97;2.77;;;;;;;20.53;88.01;96565.50;5034683;28;20190;-64
2021/07/08 02:59:52;;;;;;;2.83;2.40;;;;;;;20.49;88.17;96559.91;5034378;28;20681;-64
2021/07/08 03:02:17;;;;;;;3.07;2.60;;;;;;;20.48;88.66;96562.88;5015558;28;20424;-64
2021/07/08 03:04:44;;;;;;;2.97;2.23;;;;;;;20.51;88.44;96558.84;5014488;28;20247;-64
2021/07/08 03:07:09;;;;;;;2.80;2.60;;;;;;;20.47;88.61;96564.75;5014730;28;20179;-64
2021/07/08 03:09:35;;;;;;;2.97;2.77;;;;;;;20.45;88.46;96576.81;5014362;28;20482;-59
2021/07/08 03:12:00;;;;;;;3.13;2.40;;;;;;;20.32;89.13;96580.13;5014113;28;20653;-64
2021/07/08 03:14:25;;;;;;;2.63;2.43;;;;;;;20.36;88.90;96573.94;5015718;28;20196;-59
2021/07/08 03:16:51;;;;;;;2.60;2.27;;;;;;;20.34;88.73;96567.31;5034094;28;20631;-59
2021/07/08 03:19:16;;;;;;;3.57;2.50;;;;;;;20.43;88.06;96561.06;5034066;28;20208;-64
2021/07/08 03:21:42;;;;;;;4.10;2.53;;;;;;;20.44;87.89;96570.66;5033837;28;20183;-64
2021/07/08 03:24:07;;;;;;;6.03;2.13;;;;;;;20.44;86.92;96575.19;5032947;28;20228;-60
2021/07/08 03:26:33;;;;;;;2.20;2.00;;;;;;;20.36;87.38;96576.59;5034057;28;20172;-64
2021/07/08 03:28:59;;;;;;;3.40;2.40;;;;;;;20.19;87.63;96589.59;5033494;28;20176;-64
2021/07/08 03:31:24;;;;;;;2.83;2.50;;;;;;;20.20;87.45;96593.84;4994261;28;20420;-63
2021/07/08 03:33:50;;;;;;;2.70;2.30;;;;;;;20.21;87.72;96595.44;4994104;28;20272;-59
2021/07/08 03:36:15;;;;;;;2.50;2.30;;;;;;;20.31;87.13;96598.00;4994440;28;20188;-64
2021/07/08 03:38:41;;;;;;;2.63;2.37;;;;;;;20.39;87.39;96593.94;4994309;28;20201;-64
2021/07/08 03:41:06;;;;;;;2.50;2.40;;;;;;;20.46;87.76;96586.38;5012074;28;20177;-59
2021/07/08 03:43:32;;;;;;;2.90;2.20;;;;;;;20.49;87.90;96594.63;5013519;28;20671;-64
2021/07/08 03:45:57;;;;;;;3.40;2.37;;;;;;;20.55;87.71;96594.56;5032033;28;20187;-59
2021/07/08 03:48:22;;;;;;;3.23;2.53;;;;;;;20.53;87.78;96584.19;5033606;28;20160;-58
2021/07/08 03:50:48;;;;;;;2.83;2.63;;;;;;;20.51;87.99;96580.22;5033479;28;20180;-64
2021/07/08 03:53:13;;;;;;;3.43;2.77;;;;;;;20.55;88.21;96586.56;5032950;28;20164;-64
2021/07/08 03:55:39;;;;;;;2.70;2.50;;;;;;;20.55;88.27;96583.88;5032215;28;20259;-59
2021/07/08 03:58:04;;;;;;;2.73;2.53;;;;;;;20.55;88.52;96589.22;5033594;28;20254;-64
2021/07/08 04:00:29;;;;;;;2.53;2.33;;;;;;;20.56;88.05;96586.31;5016501;28;20185;-64
2021/07/08 04:02:57;;;;;;;4.03;2.60;;;;;;;20.55;88.03;96582.03;5013270;28;20168;-64
2021/07/08 04:05:22;;;;;;;2.50;2.40;;;;;;;20.62;87.83;96587.06;5013638;28;20197;-58
2021/07/08 04:07:47;;;;;;;2.60;2.40;;;;;;;20.67;87.69;96585.13;5013658;28;20491;-64
2021/07/08 04:10:13;;;;;;;2.90;2.63;;;;;;;20.67;87.57;96582.44;5013603;28;20223;-59
2021/07/08 04:12:39;;;;;;;2.50;2.30;;;;;;;20.70;87.83;96578.41;5013250;28;20176;-64
2021/07/08 04:15:05;;;;;;;2.53;2.33;;;;;;;20.71;87.95;96572.75;5028408;28;20204;-58
2021/07/08 04:17:31;;;;;;;2.90;2.60;;;;;;;20.75;88.04;96589.81;5033174;28;20192;-64
2021/07/08 04:19:57;;;;;;;3.50;3.30;;;;;;;20.75;87.86;96581.81;5033212;28;20461;-64
2021/07/08 04:22:23;;;;;;;2.60;2.40;;;;;;;20.74;88.20;96571.41;5032921;28;20627;-64
2021/07/08 04:24:49;;;;;;;3.17;2.97;;;;;;;20.71;88.44;96566.66;5033083;28;20207;-59
2021/07/08 04:27:14;;;;;;;3.50;2.67;;;;;;;20.72;88.39;96560.22;5033099;28;20407;-64
2021/07/08 04:29:40;;;;;;;2.80;2.60;;;;;;;20.70;88.12;96560.50;5019051;28;20213;-59
2021/07/08 04:32:06;;;;;;;2.80;2.60;;;;;;;20.70;88.30;96560.50;5013074;28;20686;-64
2021/07/08 04:34:31;;;;;;;3.10;2.80;;;;;;;20.78;87.85;96559.09;5013303;28;20200;-64
2021/07/08 04:36:56;;;;;;;3.67;3.37;;;;;;;20.75;87.99;96560.44;5017168;28;20546;-64
2021/07/08 04:39:22;;;;;;;3.87;3.57;;;;;;;20.56;88.50;96553.44;5017153;28;20255;-59
2021/07/08 04:41:47;;;;;;;3.97;3.67;;;;;;;20.55;88.24;96558.00;5017139;28;20177;-64
2021/07/08 04:44:13;;;;;;;3.60;3.30;;;;;;;20.64;88.32;96556.28;5029179;28;20226;-59
2021/07/08 04:46:39;;;;;;;4.07;3.20;;;;;;;20.70;88.10;96559.69;5036873;28;20654;-64
2021/07/08 04:49:04;;;;;;;6.13;3.80;;;;;;;20.76;88.07;96550.56;5036807;28;20172;-59
2021/07/08 04:51:30;;;;;;;3.43;3.03;;;;;;;20.78;88.01;96559.09;5033273;28;20185;-64
2021/07/08 04:53:55;;;;;;;4.00;3.43;;;;;;;20.79;88.52;96566.00;5016808;28;20655;-59
2021/07/08 04:56:20;;;;;;;3.23;2.80;;;;;;;20.79;88.47;96564.13;5016884;28;20169;-64
2021/07/08 04:58:46;;;;;;;4.80;3.20;;;;;;;20.86;88.31;96558.44;5016986;28;20250;-59
2021/07/08 05:01:11;;;;;;;4.70;3.50;;;;;;;20.87;88.16;96560.06;5016928;28;20176;-62
2021/07/08 05:03:37;;;;;;;4.33;3.93;;;;;;;20.80;88.46;96549.69;5016355;28;20193;-64
2021/07/08 05:06:02;;;;;;;3.77;3.47;;;;;;;20.85;87.94;96548.84;5017338;28;20164;-59
2021/07/08 05:08:28;;;;;;;4.20;3.67;;;;;;;20.78;88.45;96543.84;5036402;28;20203;-65
2021/07/08 05:10:53;;;;;;;3.90;3.60;;;;;;;20.77;88.97;96546.78;5035198;28;20180;-64
2021/07/08 05:13:19;;;;;;;4.07;3.77;;;;;;;20.80;88.74;96546.25;5035936;28;20626;-64
2021/07/08 05:15:44;;;;;;;5.90;4.43;;;;;;;20.86;88.92;96553.09;5035185;28;20259;-64
2021/07/08 05:18:09;;;;;;;6.87;4.30;;;;;;;20.88;88.83;96548.25;5036213;28;20188;-64
2021/07/08 05:20:38;;;;;;;4.53;4.10;;;;;;;20.89;88.82;96549.88;5036168;28;20172;-61
2021/07/08 05:23:07;;;;;;;4.23;3.80;;;;;;;20.87;89.18;96549.38;5016055;28;20263;-63
2021/07/08 05:25:32;;;;;;;6.53;5.07;;;;;;;20.80;88.61;96563.03;5016309;28;20407;-64
2021/07/08 05:27:58;;;;;;;5.40;5.00;;;;;;;20.79;88.49;96571.34;5016409;28;20466;-59
2021/07/08 05:30:24;;;;;;;9.80;7.23;;;;;;;20.73;88.97;96581.28;5016280;28;20169;-64
2021/07/08 05:32:50;;;;;;;5.30;4.80;;;;;;;20.55;89.81;96581.22;5015928;28;20171;-59
2021/07/08 05:35:15;;;;;;;4.80;4.30;;;;;;;20.61;89.59;96580.09;5015991;28;20200;-60
2021/07/08 05:37:41;;;;;;;5.40;4.93;;;;;;;20.64;89.51;96585.66;5018750;28;20196;-64
2021/07/08 05:40:07;;;;;;;5.30;4.83;;;;;;;20.47;90.24;96607.47;5016506;28;20181;-64
2021/07/08 05:42:32;;;;;;;5.37;4.90;;;;;;;20.34;91.24;96610.00;5015820;28;20202;-59
2021/07/08 05:44:58;;;;;;;5.50;5.00;;;;;;;20.37;91.03;96623.59;5015948;28;20519;-64
2021/07/08 05:47:24;;;;;;;5.37;4.87;;;;;;;20.37;91.08;96628.94;5015258;28;20183;-64
2021/07/08 05:49:49;;;;;;;6.03;4.53;;;;;;;20.43;90.70;96651.84;5014643;28;20168;-64
2021/07/08 05:52:14;;;;;;;4.83;4.43;;;;;;;20.44;90.79;96650.75;5032165;28;20191;-58
2021/07/08 05:54:40;;;;;;;4.27;3.87;;;;;;;20.27;91.02;96658.38;5035575;28;20199;-64
2021/07/08 05:57:06;;;;;;;4.87;3.73;;;;;;;20.20;91.73;96662.44;5035633;28;20179;-59
2021/07/08 05:59:32;;;;;;;4.70;4.30;;;;;;;20.16;92.19;96672.06;5035446;28;20208;-64
2021/07/08 06:01:57;;;;;;;4.00;3.50;;;;;;;20.21;91.68;96680.03;5035177;28;20488;-64
2021/07/08 06:04:23;;;;;;;5.23;4.67;;;;;;;20.16;92.00;96688.88;5035274;28;20202;-64
2021/07/08 06:06:48;;;;;;;4.00;3.50;;;;;;;20.11;92.69;96693.44;5019842;28;20188;-58
2021/07/08 06:09:14;;;;;;;3.70;3.47;;;;;;;20.11;92.88;96694.22;5015504;28;20184;-59
2021/07/08 06:11:39;;;;;;;3.90;3.10;;;;;;;20.25;92.05;96681.09;5015187;28;20173;-59
2021/07/08 06:14:04;;;;;;;5.03;3.40;;;;;;;20.36;91.82;96672.69;5015439;28;20263;-59
2021/07/08 06:16:30;;;;;;;3.77;3.47;;;;;;;20.37;91.97;96665.50;5015427;28;20187;-64
2021/07/08 06:18:55;;;;;;;3.20;2.90;;;;;;;20.55;91.44;96659.47;5015221;28;20189;-59
2021/07/08 06:21:20;;;;;;;3.83;3.53;;;;;;;20.58;91.52;96661.59;5015290;28;20185;-59
2021/07/08 06:23:46;;;;;;;4.57;4.20;;;;;;;20.73;90.39;96657.94;5014806;28;20296;-59
2021/07/08 06:29:32;;;;;;;3.67;3.37;;;;;;;20.84;89.34;96654.09;5015132;28;20184;-65
2021/07/08 06:31:58;;;;;;;4.17;3.70;;;;;;;20.56;91.19;96657.59;5014575;28;20420;-66
2021/07/08 06:34:23;;;;;;;3.60;3.30;;;;;;;20.54;91.63;96657.09;5018848;28;20232;-59
2021/07/08 06:36:49;;;;;;;3.10;2.90;;;;;;;20.73;90.48;96647.28;5017320;28;20663;-65
2021/07/08 06:39:14;;;;;;;5.00;3.10;;;;;;;20.83;90.02;96649.84;5013556;28;20211;-64
2021/07/08 06:41:40;;;;;;;3.70;3.43;;;;;;;20.90;89.80;96648.44;5014593;28;20699;-59
2021/07/08 06:44:05;;;;;;;3.90;3.60;;;;;;;20.94;89.56;96649.47;5013432;28;20200;-64
2021/07/08 06:46:31;;;;;;;4.80;3.90;;;;;;;21.01;88.88;96652.63;5015091;28;20235;-59
2021/07/08 06:48:58;;;;;;;3.63;3.40;;;;;;;20.99;88.62;96653.97;5014776;28;20627;-59
2021/07/08 06:51:23;;;;;;;6.73;3.90;;;;;;;21.01;88.67;96651.84;5027617;28;20476;-64
2021/07/08 06:53:50;;;;;;;4.00;3.63;;;;;;;21.01;89.08;96652.63;5017892;28;20447;-59
2021/07/08 06:56:17;;;;;;;3.90;3.60;;;;;;;21.08;88.73;96658.44;5014928;28;20576;-58
2021/07/08 06:58:43;;;;;;;3.83;3.53;;;;;;;21.10;88.97;96655.47;5014390;28;20544;-59
2021/07/08 07:01:09;;;;;;;4.70;3.80;;;;;;;21.17;89.08;96666.59;5014605;28;20509;-59
2021/07/08 07:03:35;;;;;;;3.80;3.30;;;;;;;21.06;89.08;96659.78;5014176;28;20185;-59
2021/07/08 07:06:01;;;;;;;3.50;3.30;;;;;;;21.08;89.18;96674.47;5026952;28;20509;-58
2021/07/08 07:08:26;;;;;;;2.90;2.70;;;;;;;21.19;88.80;96670.59;5021461;28;20428;-64
2021/07/08 07:10:52;;;;;;;3.67;3.37;;;;;;;21.32;88.50;96661.88;5014417;28;20408;-66
2021/07/08 07:13:17;;;;;;;3.80;3.50;;;;;;;21.39;88.07;96662.34;5025646;28;20176;-65
2021/07/08 07:15:42;;;;;;;3.13;2.93;;;;;;;21.41;87.93;96656.72;5032859;28;20631;-59
2021/07/08 07:18:08;;;;;;;3.87;3.50;;;;;;;21.35;88.38;96657.84;5033977;28;20215;-59
2021/07/08 07:20:34;;;;;;;3.47;3.00;;;;;;;21.44;87.47;96656.13;5034016;28;20176;-65
2021/07/08 07:22:59;;;;;;;3.20;2.90;;;;;;;21.33;88.39;96649.31;5033667;28;20168;-59
2021/07/08 07:25:26;;;;;;;3.17;2.87;;;;;;;21.38;88.64;96635.88;5034075;28;20188;-66
2021/07/08 07:27:53;;;;;;;3.53;2.87;;;;;;;21.58;87.77;96634.81;5024834;28;20184;-59
2021/07/08 07:30:21;;;;;;;5.53;3.30;;;;;;;21.59;87.35;96629.19;5033844;28;20415;-59
2021/07/08 07:32:47;;;;;;;3.43;3.07;;;;;;;21.62;86.59;96633.16;5019477;28;20986;-66
2021/07/08 07:35:13;;;;;;;7.50;4.00;;;;;;;21.67;86.20;96649.16;5018026;28;20545;-65
2021/07/08 07:37:39;;;;;;;2.80;2.60;;;;;;;21.74;86.18;96650.34;5033798;28;20407;-66
2021/07/08 07:40:06;;;;;;;3.00;2.80;;;;;;;21.88;86.23;96650.47;5024150;28;20463;-65
2021/07/08 07:42:34;;;;;;;5.30;2.60;;;;;;;21.98;86.51;96640.41;5013524;28;20404;-59
2021/07/08 07:44:59;;;;;;;3.13;2.60;;;;;;;22.05;86.33;96635.47;5014000;28;20435;-62
2021/07/08 07:47:27;;;;;;;2.80;2.60;;;;;;;22.12;87.03;96641.25;5013795;28;20416;-59
2021/07/08 07:49:53;;;;;;;3.50;2.77;;;;;;;22.16;87.22;96647.63;5013939;28;20190;-58
2021/07/08 07:52:18;;;;;;;3.33;3.03;;;;;;;22.13;87.00;96642.88;5013535;28;20898;-62
2021/07/08 07:54:43;;;;;;;3.23;3.03;;;;;;;22.12;85.67;96646.59;5013597;28;20237;-61
2021/07/08 07:57:09;;;;;;;2.77;2.57;;;;;;;22.14;85.51;96660.50;5013649;28;20334;-59
2021/07/08 07:59:39;;;;;;;3.07;2.87;;;;;;;22.19;85.67;96662.31;5009687;28;20215;-59
2021/07/08 08:02:12;;;;;;;2.90;2.60;;;;;;;22.17;86.81;96653.78;5009996;28;20179;-62
2021/07/08 08:04:46;;;;;;;3.13;2.93;;;;;;;22.19;86.80;96641.69;5025825;28;20857;-60
2021/07/08 08:09:57;;;;;;;5.10;3.20;;;;;;;22.17;87.16;96654.59;5009537;28;20495;-61
2021/07/08 08:12:24;;;;;;;2.70;2.50;;;;;;;22.36;86.31;96649.97;5009905;28;20816;-61
2021/07/08 08:14:50;;;;;;;2.87;2.67;;;;;;;22.52;86.39;96652.41;5010069;28;20435;-61
2021/07/08 08:17:16;;;;;;;3.40;3.10;;;;;;;22.52;87.04;96649.72;5010176;28;20441;-60
2021/07/08 08:19:41;;;;;;;3.60;3.30;;;;;;;22.50;88.02;96650.03;5015514;28;20946;-61
2021/07/08 08:22:07;;;;;;;3.60;3.30;;;;;;;22.52;87.45;96659.34;5028873;28;20218;-60
2021/07/08 08:24:33;;;;;;;2.77;2.60;;;;;;;22.67;86.12;96663.69;5029811;28;20192;-61
2021/07/08 08:26:58;;;;;;;4.47;3.00;;;;;;;22.73;85.69;96657.16;5029901;28;20410;-61
2021/07/08 08:29:25;;;;;;;3.70;3.40;;;;;;;22.39;86.18;96657.41;5016602;28;20631;-59
2021/07/08 08:31:51;;;;;;;3.53;3.10;;;;;;;22.45;87.29;96658.13;5014886;28;20180;-62
2021/07/08 08:34:16;;;;;;;4.80;3.30;;;;;;;22.66;87.25;96662.09;5032923;28;20438;-62
2021/07/08 08:36:44;;;;;;;3.47;3.17;;;;;;;22.80;86.54;96657.56;5033068;28;20539;-59
2021/07/08 08:39:10;;;;;;;4.17;3.00;;;;;;;22.82;85.32;96658.06;5029561;28;20661;-62
2021/07/08 08:41:36;;;;;;;3.60;3.40;;;;;;;22.93;85.23;96650.63;5012823;28;20439;-60
2021/07/08 08:44:01;;;;;;;3.73;3.17;;;;;;;23.05;85.62;96653.59;5013465;28;20542;-62
2021/07/08 08:46:27;;;;;;;5.93;4.00;;;;;;;23.11;83.95;96658.59;5013877;28;20187;-60
2021/07/08 08:48:52;;;;;;;4.47;3.90;;;;;;;23.15;82.15;96654.22;5032940;28;20239;-60
2021/07/08 08:51:18;;;;;;;3.30;3.00;;;;;;;23.14;82.54;96657.19;5032984;28;20407;-59
2021/07/08 08:53:44;;;;;;;3.57;3.13;;;;;;;23.17;82.64;96660.06;5032548;28;20196;-62
2021/07/08 08:56:09;;;;;;;3.90;3.70;;;;;;;23.20;80.31;96661.38;5032959;28;20176;-61
2021/07/08 08:58:36;;;;;;;3.57;3.27;;;;;;;22.56;81.64;96662.25;5032900;28;20197;-58
2021/07/08 09:01:05;;;;;;;3.40;3.20;;;;;;;22.85;80.39;96667.38;5032794;28;20241;-60
2021/07/08 09:03:33;;;;;;;3.20;3.00;;;;;;;22.99;79.43;96673.56;5012803;28;20473;-59
2021/07/08 09:06:07;;;;;;;3.93;3.20;;;;;;;22.76;78.98;96675.31;5012750;28;20890;-58
2021/07/08 09:08:38;;;;;;;3.20;2.90;;;;;;;22.79;79.76;96684.66;4993408;28;20415;-59
2021/07/08 09:11:12;;;;;;;3.10;2.90;;;;;;;22.99;80.00;96684.31;4993621;28;20499;-58
2021/07/08 09:13:51;;;;;;;2.73;2.60;;;;;;;23.20;79.42;96698.91;4993077;28;20440;-62
2021/07/08 09:16:16;;;;;;;3.00;2.80;;;;;;;23.14;79.21;96694.72;5000394;28;20415;-60
2021/07/08 09:18:43;;;;;;;3.13;2.83;;;;;;;23.26;80.10;96709.22;5032627;28;20945;-60
2021/07/08 09:21:20;;;;;;;2.80;2.60;;;;;;;23.34;81.53;96707.78;5032724;28;20523;-57
2021/07/08 09:24:13;;;;;;;3.00;2.80;;;;;;;23.37;80.32;96712.56;5035719;28;20426;-58
2021/07/08 09:26:54;;;;;;;3.70;3.00;;;;;;;23.08;77.71;96707.44;5036081;28;20415;-59
2021/07/08 09:29:22;;;;;;;2.97;2.77;;;;;;;23.08;76.83;96704.75;5036330;28;20443;-61
2021/07/08 09:32:12;;;;;;;4.40;3.20;;;;;;;23.05;77.63;96704.56;5025747;28;20438;-59
2021/07/08 09:34:39;;;;;;;2.83;2.20;;;;;;;22.68;78.57;96708.16;5014357;28;20521;-59
2021/07/08 09:37:11;;;;;;;3.70;2.70;;;;;;;22.73;78.43;96700.03;5016022;28;20412;-62
2021/07/08 09:39:40;;;;;;;2.80;2.50;;;;;;;22.74;78.68;96690.88;5027451;28;20463;-63
2021/07/08 09:42:07;;;;;;;2.40;2.30;;;;;;;22.91;79.72;96685.78;5015769;28;20468;-58
2021/07/08 09:44:33;;;;;;;3.50;3.20;;;;;;;22.92;79.45;96681.22;5016103;28;20501;-58
2021/07/08 09:46:59;;;;;;;3.30;2.50;;;;;;;22.74;78.73;96687.44;5015897;28;20545;-65
2021/07/08 09:49:27;;;;;;;2.60;2.40;;;;;;;22.62;79.39;96681.72;5015969;28;20518;-63
2021/07/08 09:51:53;;;;;;;2.60;2.40;;;;;;;22.64;79.44;96684.91;5012485;28;20463;-64
2021/07/08 09:54:50;;;;;;;2.60;2.40;;;;;;;22.42;79.27;96691.69;5012978;28;20461;-61
2021/07/08 09:57:41;;;;;;;2.53;2.17;;;;;;;22.33;79.30;96690.75;5012803;28;20623;-63
2021/07/08 10:00:19;;;;;;;2.60;2.40;;;;;;;22.59;79.23;96696.53;5012773;28;20579;-61
2021/07/08 10:02:46;;;;;;;2.70;2.50;;;;;;;22.68;79.44;96691.28;5011836;28;20434;-61
2021/07/08 10:05:11;;;;;;;2.50;2.30;;;;;;;22.36;79.16;96690.16;5012727;28;20440;-59
2021/07/08 10:07:38;;;;;;;2.03;1.87;;;;;;;22.41;80.00;96682.03;5012385;28;20830;-60
2021/07/08 10:10:05;;;;;;;2.40;2.30;;;;;;;22.68;79.30;96676.00;5012581;28;20184;-65
2021/07/08 10:12:32;;;;;;;2.40;2.30;;;;;;;22.89;78.49;96663.03;5015165;28;20440;-59
2021/07/08 10:15:00;;;;;;;2.50;2.30;;;;;;;22.98;79.28;96670.09;5025423;28;20461;-65
2021/07/08 10:17:29;;;;;;;2.30;2.10;;;;;;;22.93;78.94;96662.16;5026390;28;20423;-58
2021/07/08 10:19:54;;;;;;;2.87;1.83;;;;;;;22.97;74.97;96665.03;5024540;28;20470;-67
2021/07/08 10:22:20;;;;;;;1.83;1.73;;;;;;;22.98;75.16;96658.56;5026102;28;20840;-62
2021/07/08 10:24:46;;;;;;;1.73;1.40;;;;;;;23.22;74.65;96662.66;5025887;28;20566;-62
2021/07/08 10:27:12;;;;;;;1.73;1.63;;;;;;;22.84;73.27;96663.94;5021870;28;20231;-62
2021/07/08 10:29:40;;;;;;;2.70;1.30;;;;;;;23.03;71.28;96664.63;5021695;28;20255;-63
2021/07/08 10:32:07;;;;;;;1.43;1.33;;;;;;;23.25;70.55;96655.91;5025589;28;20481;-62
2021/07/08 10:34:50;;;;;;;1.63;1.53;;;;;;;23.45;70.41;96656.31;5020136;28;20459;-61
2021/07/08 10:37:41;;;;;;;1.50;1.40;;;;;;;23.25;69.58;96653.22;5015032;28;20419;-62
2021/07/08 10:40:25;;;;;;;2.17;1.17;;;;;;;23.34;69.70;96646.09;5015039;28;20459;-61
2021/07/08 10:42:52;;;;;;;1.50;1.40;;;;;;;23.61;71.50;96654.09;5032948;28;20427;-60
2021/07/08 10:45:41;;;;;;;1.00;0.90;;;;;;;23.73;71.68;96657.09;5034896;28;20426;-61
2021/07/08 10:48:19;;;;;;;1.20;1.10;;;;;;;23.64;67.50;96664.25;5034922;28;20472;-60
2021/07/08 10:50:48;;;;;;;1.10;1.10;;;;;;;23.80;66.71;96662.81;5034798;28;20884;-59
2021/07/08 10:53:17;;;;;;;19.67;2.93;;;;;;;23.90;69.79;96667.16;5034291;28;20441;-61
2021/07/08 10:55:46;;;;;;;2.70;1.60;;;;;;;24.06;71.42;96679.97;5031550;28;20434;-60
2021/07/08 10:58:36;;;;;;;1.50;1.40;;;;;;;24.14;71.11;96695.38;4995128;28;21021;-60
2021/07/08 11:01:02;;;;;;;2.27;1.60;;;;;;;24.09;69.47;96695.50;4993831;28;20421;-62
2021/07/08 11:03:41;;;;;;;1.30;1.20;;;;;;;23.92;67.60;96694.50;4994620;28;20836;-61
2021/07/08 11:06:14;;;;;;;1.13;1.03;;;;;;;23.86;66.52;96707.25;4995246;28;20169;-61
2021/07/08 11:08:45;;;;;;;1.30;1.20;;;;;;;23.88;69.98;96694.31;4998652;28;20415;-61
2021/07/08 11:11:23;;;;;;;1.50;1.40;;;;;;;23.52;68.05;96698.06;5022844;28;20430;-60
2021/07/08 11:13:58;;;;;;;1.00;0.90;;;;;;;23.34;66.28;96699.72;5026893;28;20447;-61
2021/07/08 11:16:50;;;;;;;1.63;1.40;;;;;;;23.60;69.41;96703.50;5014604;28;20415;-61
2021/07/08 11:19:21;;;;;;;1.80;1.17;;;;;;;23.26;68.97;96693.13;5014300;28;20456;-61
2021/07/08 11:21:54;;;;;;;1.70;1.13;;;;;;;23.28;69.35;96682.13;5026029;28;20411;-61
2021/07/08 11:24:28;;;;;;;1.40;1.30;;;;;;;23.25;70.47;96672.78;5014378;28;20435;-61
2021/07/08 11:27:05;;;;;;;1.40;1.30;;;;;;;23.32;72.36;96680.47;5014655;28;20427;-62
2021/07/08 11:29:55;;;;;;;1.30;1.20;;;;;;;23.05;73.67;96675.06;5011723;28;20415;-61
2021/07/08 11:32:27;;;;;;;2.00;1.63;;;;;;;22.98;74.47;96674.66;5010504;28;20545;-61
2021/07/08 11:35:02;;;;;;;1.70;1.40;;;;;;;22.85;74.95;96672.75;5021973;28;20550;-60
2021/07/08 11:37:42;;;;;;;2.00;1.90;;;;;;;22.87;73.84;96673.25;5030268;28;20415;-61
2021/07/08 11:40:10;;;;;;;1.97;1.87;;;;;;;22.74;74.92;96684.75;5020399;28;20481;-61
2021/07/08 11:42:39;;;;;;;2.03;1.80;;;;;;;22.97;73.65;96675.75;5009910;28;20415;-61